Time,TemperatureF,DewpointF,PressureIn,WindDirection,WindDirectionDegrees,WindSpeedMPH,WindSpeedGustMPH,Humidity,HourlyPrecipIn,Conditions,Clouds,dailyrainin,SolarRadiationWatts/m^2,SoftwareType,DateUTC
2013-07-18 00:01:00,80.7,68.7,29.96,South,181,0.0,0.0,67,0.00,,---,0.00,0.00,VWS V14.01,2013-07-18 05:01:00,
2013-07-18 00:06:00,80.7,68.7,29.96,South,188,0.0,0.0,67,0.00,,---,0.00,0.00,VWS V14.01,2013-07-18 05:06:00,
2013-07-18 00:11:00,80.5,69.0,29.96,South,188,0.0,0.0,68,0.00,,---,0.00,0.00,VWS V14.01,2013-07-18 05:11:00,
2013-07-18 00:16:00,80.3,68.8,29.96,South,188,0.0,0.0,68,0.00,,---,0.00,0.00,VWS V14.01,2013-07-18 05:16:00,
2013-07-18 00:21:00,80.3,69.2,29.96,South,188,0.0,0.0,69,0.00,,---,0.00,0.00,VWS V14.01,2013-07-18 05:21:00,
2013-07-18 00:26:00,80.1,69.0,29.96,South,188,0.0,0.0,69,0.00,,---,0.00,0.00,VWS V14.01,2013-07-18 05:26:00,
2013-07-18 00:31:00,79.9,69.2,29.96,South,188,0.0,0.0,70,0.00,,---,0.00,0.00,VWS V14.01,2013-07-18 05:31:00,
2013-07-18 00:36:00,79.9,69.2,29.96,South,188,0.0,0.0,70,0.00,,---,0.00,0.00,VWS V14.01,2013-07-18 05:36:00,
2013-07-18 00:41:00,79.8,69.2,29.96,South,188,0.0,0.0,70,0.00,,---,0.00,0.00,VWS V14.01,2013-07-18 05:41:00,
2013-07-18 00:46:00,79.8,69.2,29.96,South,182,0.0,0.0,70,0.00,,---,0.00,0.00,VWS V14.01,2013-07-18 05:46:00,
2013-07-18 00:51:00,79.8,69.2,29.96,South,182,0.0,0.0,70,0.00,,---,0.00,0.00,VWS V14.01,2013-07-18 05:51:00,
2013-07-18 00:56:00,79.8,69.2,29.96,South,182,0.0,0.0,70,0.00,,---,0.00,0.00,VWS V14.01,2013-07-18 05:56:00,
2013-07-18 01:01:00,79.6,69.0,29.95,South,182,0.0,0.0,70,0.00,,---,0.00,0.00,VWS V14.01,2013-07-18 06:01:00,
2013-07-18 01:06:00,79.8,69.2,29.95,South,182,0.0,0.0,70,0.00,,---,0.00,0.00,VWS V14.01,2013-07-18 06:06:00,
2013-07-18 01:11:00,79.8,69.2,29.95,South,178,0.0,0.0,70,0.00,,---,0.00,0.00,VWS V14.01,2013-07-18 06:11:00,
2013-07-18 01:16:00,79.8,69.2,29.95,South,178,0.0,0.0,70,0.00,,---,0.00,0.00,VWS V14.01,2013-07-18 06:16:00,
2013-07-18 01:21:00,79.8,69.2,29.95,South,178,0.0,0.0,70,0.00,,---,0.00,0.00,VWS V14.01,2013-07-18 06:21:00,
2013-07-18 01:26:00,79.8,69.2,29.95,South,178,0.0,0.0,70,0.00,,---,0.00,0.00,VWS V14.01,2013-07-18 06:26:00,
2013-07-18 01:31:00,79.6,69.0,29.94,South,178,0.0,0.0,70,0.00,,---,0.00,0.00,VWS V14.01,2013-07-18 06:31:00,
2013-07-18 01:36:00,79.6,69.0,29.94,SSE,165,0.0,0.0,70,0.00,,---,0.00,0.00,VWS V14.01,2013-07-18 06:36:00,
2013-07-18 01:41:00,79.6,69.0,29.94,South,172,0.0,0.0,70,0.00,,---,0.00,0.00,VWS V14.01,2013-07-18 06:41:00,
2013-07-18 01:46:00,79.6,69.0,29.94,SSW,213,0.0,0.0,70,0.00,,---,0.00,0.00,VWS V14.01,2013-07-18 06:46:00,
2013-07-18 01:51:00,79.6,69.0,29.94,SSW,192,0.0,0.0,70,0.00,,---,0.00,0.00,VWS V14.01,2013-07-18 06:51:00,
2013-07-18 01:56:00,79.6,69.0,29.94,SSW,192,1.0,1.0,70,0.00,,---,0.00,0.00,VWS V14.01,2013-07-18 06:56:00,
2013-07-18 02:01:00,79.6,69.0,29.94,SSW,192,1.0,1.0,70,0.00,,---,0.00,0.00,VWS V14.01,2013-07-18 07:01:00,
2013-07-18 02:06:00,79.8,69.2,29.94,SSW,208,1.0,1.0,70,0.00,,---,0.00,0.00,VWS V14.01,2013-07-18 07:06:00,
2013-07-18 02:11:00,79.8,69.2,29.94,SSW,206,0.0,0.0,70,0.00,,---,0.00,0.00,VWS V14.01,2013-07-18 07:11:00,
2013-07-18 02:16:00,79.8,69.2,29.94,SW,234,1.0,1.0,70,0.00,,---,0.00,0.00,VWS V14.01,2013-07-18 07:16:00,
2013-07-18 02:21:00,79.9,69.2,29.94,West,268,0.0,0.0,70,0.00,,---,0.00,0.00,VWS V14.01,2013-07-18 07:21:00,
2013-07-18 02:26:00,79.9,69.2,29.94,SW,236,0.0,0.0,70,0.00,,---,0.00,0.00,VWS V14.01,2013-07-18 07:26:00,
2013-07-18 02:31:00,79.9,69.2,29.94,SSW,196,1.0,1.0,70,0.00,,---,0.00,0.00,VWS V14.01,2013-07-18 07:31:00,
2013-07-18 02:36:00,79.9,69.2,29.94,ENE,66,2.0,2.0,70,0.00,,---,0.00,0.00,VWS V14.01,2013-07-18 07:36:00,
2013-07-18 02:41:00,79.9,69.2,29.94,SE,143,0.0,0.0,70,0.00,,---,0.00,0.00,VWS V14.01,2013-07-18 07:41:00,
2013-07-18 02:46:00,79.8,69.2,29.94,ESE,109,1.0,1.0,70,0.00,,---,0.00,0.00,VWS V14.01,2013-07-18 07:46:00,
2013-07-18 02:51:00,79.6,69.0,29.94,South,189,0.0,0.0,70,0.00,,---,0.00,0.00,VWS V14.01,2013-07-18 07:51:00,
2013-07-18 02:56:00,79.6,69.4,29.94,WSW,241,2.0,2.0,71,0.00,,---,0.00,0.00,VWS V14.01,2013-07-18 07:56:00,
2013-07-18 03:01:00,79.6,69.4,29.93,WSW,237,0.0,0.0,71,0.00,,---,0.00,0.00,VWS V14.01,2013-07-18 08:01:00,
2013-07-18 03:06:00,79.6,69.4,29.93,SSE,168,0.0,0.0,71,0.00,,---,0.00,0.00,VWS V14.01,2013-07-18 08:06:00,
2013-07-18 03:11:00,79.4,69.2,29.93,SW,224,0.0,1.0,71,0.00,,---,0.00,0.00,VWS V14.01,2013-07-18 08:11:00,
2013-07-18 03:16:00,79.4,69.2,29.94,WSW,244,1.0,2.0,71,0.00,,---,0.00,0.00,VWS V14.01,2013-07-18 08:16:00,
2013-07-18 03:21:00,79.4,69.2,29.94,ESE,102,1.0,2.0,71,0.00,,---,0.00,0.00,VWS V14.01,2013-07-18 08:21:00,
2013-07-18 03:26:00,79.4,69.2,29.94,WSW,256,0.0,0.0,71,0.00,,---,0.00,0.00,VWS V14.01,2013-07-18 08:26:00,
2013-07-18 03:31:00,79.4,69.2,29.93,South,189,1.0,1.0,71,0.00,,---,0.00,0.00,VWS V14.01,2013-07-18 08:31:00,
2013-07-18 03:36:00,79.2,69.0,29.93,SSE,151,2.0,2.0,71,0.00,,---,0.00,0.00,VWS V14.01,2013-07-18 08:36:00,
2013-07-18 03:41:00,79.0,69.2,29.93,West,261,2.0,2.0,72,0.00,,---,0.00,0.00,VWS V14.01,2013-07-18 08:41:00,
2013-07-18 03:46:00,78.8,69.0,29.93,North,349,2.0,2.0,72,0.00,,---,0.00,0.00,VWS V14.01,2013-07-18 08:46:00,
2013-07-18 03:51:00,78.8,69.0,29.93,WSW,244,2.0,2.0,72,0.00,,---,0.00,0.00,VWS V14.01,2013-07-18 08:51:00,
2013-07-18 03:56:00,78.8,69.0,29.93,SW,215,0.0,0.0,72,0.00,,---,0.00,0.00,VWS V14.01,2013-07-18 08:56:00,
2013-07-18 04:01:00,78.6,68.8,29.93,West,274,0.0,0.0,72,0.00,,---,0.00,0.00,VWS V14.01,2013-07-18 09:01:00,
2013-07-18 04:06:00,78.6,69.2,29.93,SSE,165,0.0,0.0,73,0.00,,---,0.00,0.00,VWS V14.01,2013-07-18 09:06:00,
2013-07-18 04:11:00,78.5,69.1,29.93,SSW,212,0.0,0.0,73,0.00,,---,0.00,0.00,VWS V14.01,2013-07-18 09:11:00,
2013-07-18 04:16:00,78.3,68.9,29.92,SE,144,0.0,0.0,73,0.00,,---,0.00,0.00,VWS V14.01,2013-07-18 09:16:00,
2013-07-18 04:21:00,78.3,68.9,29.92,SSW,203,0.0,0.0,73,0.00,,---,0.00,0.00,VWS V14.01,2013-07-18 09:21:00,
2013-07-18 04:26:00,78.1,68.8,29.92,SSE,165,0.0,0.0,73,0.00,,---,0.00,0.00,VWS V14.01,2013-07-18 09:26:00,
2013-07-18 04:31:00,77.9,68.6,29.92,ESE,123,0.0,0.0,73,0.00,,---,0.00,0.00,VWS V14.01,2013-07-18 09:31:00,
2013-07-18 04:36:00,77.7,68.8,29.92,South,171,1.0,1.0,74,0.00,,---,0.00,0.00,VWS V14.01,2013-07-18 09:36:00,
2013-07-18 04:41:00,77.7,68.8,29.92,SSW,205,1.0,1.0,74,0.00,,---,0.00,0.00,VWS V14.01,2013-07-18 09:41:00,
2013-07-18 04:46:00,77.7,68.8,29.91,SSE,168,2.0,2.0,74,0.00,,---,0.00,0.00,VWS V14.01,2013-07-18 09:46:00,
2013-07-18 04:51:00,77.6,68.7,29.91,WNW,288,2.0,2.0,74,0.00,,---,0.00,0.00,VWS V14.01,2013-07-18 09:51:00,
2013-07-18 04:56:00,77.6,68.7,29.91,SW,219,0.0,0.0,74,0.00,,---,0.00,0.00,VWS V14.01,2013-07-18 09:56:00,
2013-07-18 05:01:00,77.6,68.7,29.91,WSW,239,3.0,3.0,74,0.00,,---,0.00,0.00,VWS V14.01,2013-07-18 10:01:00,
2013-07-18 05:06:00,77.6,68.7,29.91,SSW,199,0.0,0.0,74,0.00,,---,0.00,0.00,VWS V14.01,2013-07-18 10:06:00,
2013-07-18 05:11:00,77.4,68.9,29.91,SSW,198,2.0,3.0,75,0.00,,---,0.00,0.00,VWS V14.01,2013-07-18 10:11:00,
2013-07-18 05:16:00,77.4,68.9,29.91,SSW,195,1.0,1.0,75,0.00,,---,0.00,0.00,VWS V14.01,2013-07-18 10:16:00,
2013-07-18 05:21:00,77.4,68.9,29.91,SSW,195,0.0,0.0,75,0.00,,---,0.00,0.00,VWS V14.01,2013-07-18 10:21:00,
2013-07-18 05:26:00,77.4,68.9,29.91,West,271,0.0,0.0,75,0.00,,---,0.00,0.00,VWS V14.01,2013-07-18 10:26:00,
2013-07-18 05:31:00,77.4,68.9,29.90,SW,224,1.0,1.0,75,0.00,,---,0.00,0.00,VWS V14.01,2013-07-18 10:31:00,
2013-07-18 05:36:00,77.4,68.9,29.90,South,178,1.0,1.0,75,0.00,,---,0.00,0.00,VWS V14.01,2013-07-18 10:36:00,
2013-07-18 05:41:00,77.4,68.9,29.90,SW,230,2.0,2.0,75,0.00,,---,0.00,0.00,VWS V14.01,2013-07-18 10:41:00,
2013-07-18 05:46:00,77.4,68.9,29.90,NNE,25,0.0,0.0,75,0.00,,---,0.00,0.00,VWS V14.01,2013-07-18 10:46:00,
2013-07-18 05:51:00,77.4,68.9,29.90,North,3,0.0,1.0,75,0.00,,---,0.00,0.00,VWS V14.01,2013-07-18 10:51:00,
2013-07-18 05:56:00,77.2,68.7,29.90,North,354,1.0,1.0,75,0.00,,---,0.00,0.00,VWS V14.01,2013-07-18 10:56:00,
2013-07-18 06:01:00,77.2,68.7,29.90,South,174,1.0,1.0,75,0.00,,---,0.00,0.00,VWS V14.01,2013-07-18 11:01:00,
2013-07-18 06:06:00,77.2,68.7,29.90,SSE,147,1.0,1.0,75,0.00,,---,0.00,5.00,VWS V14.01,2013-07-18 11:06:00,
2013-07-18 06:11:00,77.2,68.7,29.90,SSW,200,4.0,4.0,75,0.00,,---,0.00,5.00,VWS V14.01,2013-07-18 11:11:00,
2013-07-18 06:15:00,77.4,68.9,29.90,SW,220,1.0,1.0,75,0.00,,---,0.00,14.00,VWS V14.01,2013-07-18 11:15:00,
2013-07-18 06:20:00,77.4,68.9,29.90,SSW,208,1.0,1.0,75,0.00,,---,0.00,16.00,VWS V14.01,2013-07-18 11:20:00,
2013-07-18 06:25:00,77.4,68.9,29.90,West,260,1.0,8.0,75,0.00,,---,0.00,16.00,VWS V14.01,2013-07-18 11:25:00,
2013-07-18 06:30:00,77.6,69.1,29.90,South,184,0.0,0.0,75,0.00,,---,0.00,16.00,VWS V14.01,2013-07-18 11:30:00,
2013-07-18 06:35:00,77.6,68.7,29.90,SSW,206,0.0,0.0,74,0.00,,---,0.00,28.00,VWS V14.01,2013-07-18 11:35:00,
2013-07-18 06:40:00,77.7,68.8,29.90,SSW,206,0.0,0.0,74,0.00,,---,0.00,28.00,VWS V14.01,2013-07-18 11:40:00,
2013-07-18 06:45:00,77.7,68.8,29.90,SSW,200,1.0,1.0,74,0.00,,---,0.00,28.00,VWS V14.01,2013-07-18 11:45:00,
2013-07-18 06:50:00,77.9,68.9,29.90,SW,215,1.0,4.0,74,0.00,,---,0.00,28.00,VWS V14.01,2013-07-18 11:50:00,
2013-07-18 06:55:00,77.9,68.9,29.90,SSW,213,3.0,3.0,74,0.00,,---,0.00,28.00,VWS V14.01,2013-07-18 11:55:00,
2013-07-18 07:00:00,78.1,69.1,29.89,South,189,1.0,3.0,74,0.00,,---,0.00,28.00,VWS V14.01,2013-07-18 12:00:00,
2013-07-18 07:05:00,78.5,69.5,29.89,WNW,285,1.0,1.0,74,0.00,,---,0.00,28.00,VWS V14.01,2013-07-18 12:05:00,
2013-07-18 07:10:00,78.6,69.6,29.89,SSE,158,2.0,2.0,74,0.00,,---,0.00,28.00,VWS V14.01,2013-07-18 12:10:00,
2013-07-18 07:15:00,79.0,69.2,29.89,SSW,205,1.0,1.0,72,0.00,,---,0.00,28.00,VWS V14.01,2013-07-18 12:15:00,
2013-07-18 07:20:00,79.0,69.2,29.89,SSW,198,6.0,6.0,72,0.00,,---,0.00,28.00,VWS V14.01,2013-07-18 12:20:00,
2013-07-18 07:25:00,79.2,69.4,29.89,North,0,3.0,3.0,72,0.00,,---,0.00,28.00,VWS V14.01,2013-07-18 12:25:00,
2013-07-18 07:30:00,79.8,69.2,29.88,South,176,3.0,3.0,70,0.00,,---,0.00,28.00,VWS V14.01,2013-07-18 12:30:00,
2013-07-18 07:35:00,79.9,69.2,29.88,SW,234,2.0,3.0,70,0.00,,---,0.00,234.00,VWS V14.01,2013-07-18 12:35:00,
2013-07-18 07:40:00,79.9,69.2,29.88,North,0,0.0,0.0,70,0.00,,---,0.00,234.00,VWS V14.01,2013-07-18 12:40:00,
2013-07-18 07:45:00,79.9,68.8,29.88,WSW,256,1.0,1.0,69,0.00,,---,0.00,234.00,VWS V14.01,2013-07-18 12:45:00,
2013-07-18 07:50:00,80.5,69.4,29.88,SSW,202,6.0,6.0,69,0.00,,---,0.00,274.00,VWS V14.01,2013-07-18 12:50:00,
2013-07-18 07:55:00,80.9,69.8,29.88,SSW,202,3.0,3.0,69,0.00,,---,0.00,274.00,VWS V14.01,2013-07-18 12:55:00,
2013-07-18 08:00:00,81.1,70.0,29.87,SSW,213,0.0,4.0,69,0.00,,---,0.00,274.00,VWS V14.01,2013-07-18 13:00:00,
2013-07-18 08:05:00,81.4,69.4,29.87,WNW,289,0.0,0.0,67,0.00,,---,0.00,274.00,VWS V14.01,2013-07-18 13:05:00,
2013-07-18 08:10:00,81.8,69.3,29.87,SW,215,3.0,3.0,66,0.00,,---,0.00,274.00,VWS V14.01,2013-07-18 13:10:00,
2013-07-18 08:15:00,82.0,69.5,29.87,WNW,292,2.0,6.0,66,0.00,,---,0.00,341.00,VWS V14.01,2013-07-18 13:15:00,
2013-07-18 08:20:00,82.4,69.5,29.87,SSW,203,2.0,3.0,65,0.00,,---,0.00,362.00,VWS V14.01,2013-07-18 13:20:00,
2013-07-18 08:25:00,82.8,69.8,29.87,WSW,246,2.0,2.0,65,0.00,,---,0.00,371.00,VWS V14.01,2013-07-18 13:25:00,
2013-07-18 08:30:00,83.4,70.4,29.87,South,171,2.0,2.0,65,0.00,,---,0.00,382.00,VWS V14.01,2013-07-18 13:30:00,
2013-07-18 08:35:00,83.6,70.6,29.87,WSW,237,3.0,3.0,65,0.00,,---,0.00,382.00,VWS V14.01,2013-07-18 13:35:00,
2013-07-18 08:40:00,84.0,69.6,29.87,WSW,240,2.0,3.0,62,0.00,,---,0.00,382.00,VWS V14.01,2013-07-18 13:40:00,
2013-07-18 08:45:00,84.1,69.7,29.86,NNW,347,0.0,0.0,62,0.00,,---,0.00,382.00,VWS V14.01,2013-07-18 13:45:00,
2013-07-18 08:50:00,84.1,69.7,29.86,SSE,152,1.0,2.0,62,0.00,,---,0.00,382.00,VWS V14.01,2013-07-18 13:50:00,
2013-07-18 08:55:00,84.5,70.1,29.86,NNW,328,0.0,0.0,62,0.00,,---,0.00,382.00,VWS V14.01,2013-07-18 13:55:00,
2013-07-18 09:00:00,84.5,70.1,29.86,West,264,1.0,1.0,62,0.00,,---,0.00,382.00,VWS V14.01,2013-07-18 14:00:00,
2013-07-18 09:05:00,84.9,69.0,29.86,SSW,198,5.0,5.0,59,0.00,,---,0.00,382.00,VWS V14.01,2013-07-18 14:05:00,
2013-07-18 09:10:00,85.1,69.2,29.86,NW,318,1.0,1.0,59,0.00,,---,0.00,382.00,VWS V14.01,2013-07-18 14:10:00,
2013-07-18 09:15:00,85.7,69.7,29.86,WNW,302,1.0,2.0,59,0.00,,---,0.00,382.00,VWS V14.01,2013-07-18 14:15:00,
2013-07-18 09:20:00,85.7,69.7,29.86,NNW,343,2.0,5.0,59,0.00,,---,0.00,382.00,VWS V14.01,2013-07-18 14:20:00,
2013-07-18 09:25:00,86.1,70.1,29.86,SW,217,1.0,2.0,59,0.00,,---,0.00,535.00,VWS V14.01,2013-07-18 14:25:00,
2013-07-18 09:30:00,86.3,69.8,29.85,WNW,296,1.0,1.0,58,0.00,,---,0.00,535.00,VWS V14.01,2013-07-18 14:30:00,
2013-07-18 09:35:00,86.5,70.0,29.85,WSW,240,1.0,2.0,58,0.00,,---,0.00,535.00,VWS V14.01,2013-07-18 14:35:00,
2013-07-18 09:40:00,86.5,70.0,29.85,WNW,287,1.0,7.0,58,0.00,,---,0.00,535.00,VWS V14.01,2013-07-18 14:40:00,
2013-07-18 09:45:00,86.5,70.0,29.84,WSW,258,1.0,1.0,58,0.00,,---,0.00,535.00,VWS V14.01,2013-07-18 14:45:00,
2013-07-18 09:50:00,87.2,70.6,29.84,SW,232,2.0,2.0,58,0.00,,---,0.00,607.00,VWS V14.01,2013-07-18 14:50:00,
2013-07-18 09:55:00,87.4,70.8,29.84,West,265,1.0,5.0,58,0.00,,---,0.00,607.00,VWS V14.01,2013-07-18 14:55:00,
2013-07-18 10:00:00,87.6,68.9,29.84,South,191,8.0,8.0,54,0.00,,---,0.00,632.00,VWS V14.01,2013-07-18 15:00:00,
2013-07-18 10:05:00,88.0,68.7,29.84,SW,217,2.0,5.0,53,0.00,,---,0.00,632.00,VWS V14.01,2013-07-18 15:05:00,
2013-07-18 10:10:00,88.0,68.7,29.84,WNW,284,5.0,5.0,53,0.00,,---,0.00,649.00,VWS V14.01,2013-07-18 15:10:00,
2013-07-18 10:15:00,88.6,69.3,29.83,West,277,3.0,3.0,53,0.00,,---,0.00,649.00,VWS V14.01,2013-07-18 15:15:00,
2013-07-18 10:20:00,88.8,69.5,29.83,NNW,347,1.0,6.0,53,0.00,,---,0.00,649.00,VWS V14.01,2013-07-18 15:20:00,
2013-07-18 10:25:00,88.8,69.5,29.83,West,275,1.0,6.0,53,0.00,,---,0.00,649.00,VWS V14.01,2013-07-18 15:25:00,
2013-07-18 10:30:00,88.8,68.4,29.83,WSW,241,5.0,5.0,51,0.00,,---,0.00,649.00,VWS V14.01,2013-07-18 15:30:00,
2013-07-18 10:35:00,88.8,68.4,29.83,West,281,6.0,6.0,51,0.00,,---,0.00,649.00,VWS V14.01,2013-07-18 15:35:00,
2013-07-18 10:40:00,89.5,68.4,29.83,NW,325,7.0,7.0,50,0.00,,---,0.00,649.00,VWS V14.01,2013-07-18 15:40:00,
2013-07-18 10:45:00,89.7,68.6,29.82,NW,323,5.0,5.0,50,0.00,,---,0.00,649.00,VWS V14.01,2013-07-18 15:45:00,
2013-07-18 10:50:00,89.7,68.6,29.82,West,265,3.0,3.0,50,0.00,,---,0.00,649.00,VWS V14.01,2013-07-18 15:50:00,
2013-07-18 10:55:00,89.7,68.6,29.82,ESE,119,2.0,2.0,50,0.00,,---,0.00,649.00,VWS V14.01,2013-07-18 15:55:00,
2013-07-18 11:00:00,89.9,68.8,29.82,SW,215,6.0,10.0,50,0.00,,---,0.00,649.00,VWS V14.01,2013-07-18 16:00:00,
2013-07-18 11:05:00,89.7,68.6,29.82,West,264,7.0,7.0,50,0.00,,---,0.00,649.00,VWS V14.01,2013-07-18 16:05:00,
2013-07-18 11:10:00,90.1,69.0,29.82,WSW,257,1.0,1.0,50,0.00,,---,0.00,741.00,VWS V14.01,2013-07-18 16:10:00,
2013-07-18 11:15:00,90.1,69.0,29.82,West,260,2.0,3.0,50,0.00,,---,0.00,741.00,VWS V14.01,2013-07-18 16:15:00,
2013-07-18 11:20:00,90.3,69.2,29.82,South,189,5.0,5.0,50,0.00,,---,0.00,788.00,VWS V14.01,2013-07-18 16:20:00,
2013-07-18 11:25:00,90.5,69.3,29.82,SSE,152,2.0,3.0,50,0.00,,---,0.00,788.00,VWS V14.01,2013-07-18 16:25:00,
2013-07-18 11:30:00,90.7,69.5,29.81,NW,318,8.0,8.0,50,0.00,,---,0.00,823.00,VWS V14.01,2013-07-18 16:30:00,
2013-07-18 11:35:00,90.7,68.3,29.81,SW,220,2.0,2.0,48,0.00,,---,0.00,832.00,VWS V14.01,2013-07-18 16:35:00,
2013-07-18 11:40:00,91.0,69.2,29.81,NE,47,2.0,2.0,49,0.00,,---,0.00,832.00,VWS V14.01,2013-07-18 16:40:00,
2013-07-18 11:45:00,91.2,69.4,29.81,SSE,160,5.0,10.0,49,0.00,,---,0.00,832.00,VWS V14.01,2013-07-18 16:45:00,
2013-07-18 11:50:00,91.4,69.6,29.81,SW,224,1.0,1.0,49,0.00,,---,0.00,832.00,VWS V14.01,2013-07-18 16:50:00,
2013-07-18 11:55:00,91.4,69.6,29.81,SSW,206,2.0,2.0,49,0.00,,---,0.00,832.00,VWS V14.01,2013-07-18 16:55:00,
2013-07-18 12:00:00,91.8,69.9,29.81,WSW,258,8.0,12.0,49,0.00,,---,0.00,801.00,VWS V14.01,2013-07-18 17:00:00,
2013-07-18 12:05:00,91.8,69.9,29.81,WSW,239,3.0,3.0,49,0.00,,---,0.00,801.00,VWS V14.01,2013-07-18 17:05:00,
2013-07-18 12:10:00,91.6,69.8,29.81,SSW,196,7.0,7.0,49,0.00,,---,0.00,801.00,VWS V14.01,2013-07-18 17:10:00,
2013-07-18 12:15:00,91.6,69.8,29.80,WSW,258,3.0,3.0,49,0.00,,---,0.00,801.00,VWS V14.01,2013-07-18 17:15:00,
2013-07-18 12:20:00,91.8,69.9,29.80,NW,309,3.0,3.0,49,0.00,,---,0.00,801.00,VWS V14.01,2013-07-18 17:20:00,
2013-07-18 12:25:00,92.1,70.2,29.80,WSW,257,4.0,4.0,49,0.00,,---,0.00,801.00,VWS V14.01,2013-07-18 17:25:00,
2013-07-18 12:30:00,92.3,70.4,29.80,WNW,294,3.0,5.0,49,0.00,,---,0.00,801.00,VWS V14.01,2013-07-18 17:30:00,
2013-07-18 12:35:00,92.7,70.8,29.80,East,86,1.0,2.0,49,0.00,,---,0.00,801.00,VWS V14.01,2013-07-18 17:35:00,
2013-07-18 12:40:00,92.9,69.7,29.80,West,261,8.0,8.0,47,0.00,,---,0.00,107.00,VWS V14.01,2013-07-18 17:40:00,
2013-07-18 12:45:00,93.2,70.0,29.79,NNW,344,10.0,17.0,47,0.00,,---,0.00,107.00,VWS V14.01,2013-07-18 17:45:00,
2013-07-18 12:50:00,92.9,69.7,29.79,WNW,289,3.0,3.0,47,0.00,,---,0.00,107.00,VWS V14.01,2013-07-18 17:50:00,
2013-07-18 12:55:00,92.9,69.7,29.79,South,171,6.0,6.0,47,0.00,,---,0.00,107.00,VWS V14.01,2013-07-18 17:55:00,
2013-07-18 13:00:00,92.5,69.3,29.79,WNW,298,6.0,6.0,47,0.00,,---,0.00,107.00,VWS V14.01,2013-07-18 18:00:00,
2013-07-18 13:05:00,92.3,69.2,29.79,North,0,1.0,1.0,47,0.00,,---,0.00,107.00,VWS V14.01,2013-07-18 18:05:00,
2013-07-18 13:10:00,92.1,69.0,29.79,SSW,192,7.0,7.0,47,0.00,,---,0.00,107.00,VWS V14.01,2013-07-18 18:10:00,
2013-07-18 13:15:00,91.8,68.7,29.78,NW,312,3.0,3.0,47,0.00,,---,0.00,107.00,VWS V14.01,2013-07-18 18:15:00,
2013-07-18 13:20:00,92.1,69.0,29.78,WSW,257,3.0,7.0,47,0.00,,---,0.00,918.00,VWS V14.01,2013-07-18 18:20:00,
2013-07-18 13:25:00,92.1,69.0,29.78,NNW,333,2.0,2.0,47,0.00,,---,0.00,922.00,VWS V14.01,2013-07-18 18:25:00,
2013-07-18 13:30:00,92.5,69.3,29.78,WSW,250,6.0,6.0,47,0.00,,---,0.00,922.00,VWS V14.01,2013-07-18 18:30:00,
2013-07-18 13:35:00,93.2,70.0,29.78,NW,320,3.0,9.0,47,0.00,,---,0.00,922.00,VWS V14.01,2013-07-18 18:35:00,
2013-07-18 13:40:00,93.4,70.2,29.78,West,278,3.0,3.0,47,0.00,,---,0.00,922.00,VWS V14.01,2013-07-18 18:40:00,
2013-07-18 13:45:00,93.4,68.2,29.77,SSE,148,3.0,3.0,44,0.00,,---,0.00,922.00,VWS V14.01,2013-07-18 18:45:00,
2013-07-18 13:50:00,93.2,68.1,29.77,SE,143,2.0,5.0,44,0.00,,---,0.00,922.00,VWS V14.01,2013-07-18 18:50:00,
2013-07-18 13:55:00,92.9,67.8,29.77,West,270,11.0,11.0,44,0.00,,---,0.00,922.00,VWS V14.01,2013-07-18 18:55:00,
2013-07-18 14:00:00,93.4,68.2,29.76,SSW,212,5.0,5.0,44,0.00,,---,0.00,922.00,VWS V14.01,2013-07-18 19:00:00,
2013-07-18 14:05:00,93.4,68.2,29.76,East,90,8.0,8.0,44,0.00,,---,0.00,922.00,VWS V14.01,2013-07-18 19:05:00,
2013-07-18 14:10:00,93.6,68.4,29.76,North,11,4.0,4.0,44,0.00,,---,0.00,922.00,VWS V14.01,2013-07-18 19:10:00,
2013-07-18 14:15:00,93.2,68.1,29.76,South,174,0.0,0.0,44,0.00,,---,0.00,922.00,VWS V14.01,2013-07-18 19:15:00,
2013-07-18 14:20:00,93.4,69.5,29.76,SW,216,11.0,11.0,46,0.00,,---,0.00,922.00,VWS V14.01,2013-07-18 19:20:00,
2013-07-18 14:25:00,93.4,68.2,29.76,SW,222,7.0,7.0,44,0.00,,---,0.00,922.00,VWS V14.01,2013-07-18 19:25:00,
2013-07-18 14:30:00,93.4,68.2,29.75,South,176,3.0,4.0,44,0.00,,---,0.00,883.00,VWS V14.01,2013-07-18 19:30:00,
2013-07-18 14:35:00,93.6,68.4,29.75,NNW,328,1.0,1.0,44,0.00,,---,0.00,883.00,VWS V14.01,2013-07-18 19:35:00,
2013-07-18 14:40:00,93.8,68.6,29.75,South,176,8.0,8.0,44,0.00,,---,0.00,883.00,VWS V14.01,2013-07-18 19:40:00,
2013-07-18 14:45:00,93.8,68.6,29.74,NW,316,0.0,3.0,44,0.00,,---,0.00,883.00,VWS V14.01,2013-07-18 19:45:00,
2013-07-18 14:50:00,93.8,68.6,29.74,ESE,121,1.0,1.0,44,0.00,,---,0.00,883.00,VWS V14.01,2013-07-18 19:50:00,
2013-07-18 14:55:00,94.0,68.8,29.74,NW,306,3.0,10.0,44,0.00,,---,0.00,883.00,VWS V14.01,2013-07-18 19:55:00,
2013-07-18 15:00:00,94.0,68.8,29.73,SSW,205,10.0,10.0,44,0.00,,---,0.00,90.00,VWS V14.01,2013-07-18 20:00:00,
2013-07-18 15:05:00,94.0,68.8,29.73,SW,229,1.0,1.0,44,0.00,,---,0.00,90.00,VWS V14.01,2013-07-18 20:05:00,
2013-07-18 15:10:00,94.0,68.8,29.73,West,280,2.0,2.0,44,0.00,,---,0.00,90.00,VWS V14.01,2013-07-18 20:10:00,
2013-07-18 15:15:00,94.5,69.2,29.72,ESE,114,6.0,6.0,44,0.00,,---,0.00,788.00,VWS V14.01,2013-07-18 20:15:00,
2013-07-18 15:20:00,94.5,69.2,29.72,SSW,195,7.0,8.0,44,0.00,,---,0.00,787.00,VWS V14.01,2013-07-18 20:20:00,
2013-07-18 15:25:00,94.3,69.1,29.72,ESE,117,5.0,5.0,44,0.00,,---,0.00,764.00,VWS V14.01,2013-07-18 20:25:00,
2013-07-18 15:30:00,94.3,67.7,29.73,NW,312,3.0,6.0,42,0.00,,---,0.00,764.00,VWS V14.01,2013-07-18 20:30:00,
2013-07-18 15:35:00,94.3,67.7,29.73,WSW,253,11.0,11.0,42,0.00,,---,0.00,779.00,VWS V14.01,2013-07-18 20:35:00,
2013-07-18 15:40:00,94.3,67.7,29.73,SW,233,4.0,4.0,42,0.00,,---,0.00,779.00,VWS V14.01,2013-07-18 20:40:00,
2013-07-18 15:45:00,93.4,66.9,29.72,ENE,65,5.0,5.0,42,0.00,,---,0.00,779.00,VWS V14.01,2013-07-18 20:45:00,
2013-07-18 15:50:00,93.4,66.9,29.72,WSW,241,10.0,10.0,42,0.00,,---,0.00,737.00,VWS V14.01,2013-07-18 20:50:00,
2013-07-18 15:55:00,93.4,67.6,29.72,SW,216,8.0,8.0,43,0.00,,---,0.00,737.00,VWS V14.01,2013-07-18 20:55:00,
2013-07-18 16:00:00,93.4,67.6,29.71,South,175,10.0,11.0,43,0.00,,---,0.00,787.00,VWS V14.01,2013-07-18 21:00:00,
2013-07-18 16:05:00,93.2,67.4,29.71,SSW,209,1.0,12.0,43,0.00,,---,0.00,787.00,VWS V14.01,2013-07-18 21:05:00,
2013-07-18 16:10:00,93.4,67.6,29.71,SSW,198,7.0,7.0,43,0.00,,---,0.00,787.00,VWS V14.01,2013-07-18 21:10:00,
2013-07-18 16:15:00,93.4,67.6,29.71,South,189,8.0,8.0,43,0.00,,---,0.00,699.00,VWS V14.01,2013-07-18 21:15:00,
2013-07-18 16:20:00,93.4,66.9,29.71,SSW,202,6.0,6.0,42,0.00,,---,0.00,699.00,VWS V14.01,2013-07-18 21:20:00,
2013-07-18 16:25:00,93.6,67.1,29.71,West,275,4.0,5.0,42,0.00,,---,0.00,702.00,VWS V14.01,2013-07-18 21:25:00,
2013-07-18 16:30:00,94.0,67.4,29.70,SSW,192,5.0,6.0,42,0.00,,---,0.00,702.00,VWS V14.01,2013-07-18 21:30:00,
2013-07-18 16:35:00,93.8,67.9,29.70,SE,145,1.0,6.0,43,0.00,,---,0.00,711.00,VWS V14.01,2013-07-18 21:35:00,
2013-07-18 16:40:00,93.4,67.6,29.70,SSW,203,7.0,7.0,43,0.00,,---,0.00,711.00,VWS V14.01,2013-07-18 21:40:00,
2013-07-18 16:45:00,93.4,67.6,29.70,North,0,3.0,3.0,43,0.00,,---,0.00,711.00,VWS V14.01,2013-07-18 21:45:00,
2013-07-18 16:50:00,93.4,67.6,29.70,South,175,14.0,14.0,43,0.00,,---,0.00,711.00,VWS V14.01,2013-07-18 21:50:00,
2013-07-18 16:55:00,93.4,67.6,29.70,WSW,258,2.0,2.0,43,0.00,,---,0.00,711.00,VWS V14.01,2013-07-18 21:55:00,
2013-07-18 17:00:00,93.2,67.4,29.69,SSW,213,5.0,5.0,43,0.00,,---,0.00,711.00,VWS V14.01,2013-07-18 22:00:00,
2013-07-18 17:05:00,93.4,67.6,29.69,South,191,1.0,1.0,43,0.00,,---,0.00,711.00,VWS V14.01,2013-07-18 22:05:00,
2013-07-18 17:10:00,93.6,67.1,29.69,WSW,256,5.0,6.0,42,0.00,,---,0.00,711.00,VWS V14.01,2013-07-18 22:10:00,
2013-07-18 17:15:00,93.6,67.1,29.68,West,267,3.0,10.0,42,0.00,,---,0.00,711.00,VWS V14.01,2013-07-18 22:15:00,
2013-07-18 17:20:00,93.6,67.1,29.68,ENE,66,1.0,6.0,42,0.00,,---,0.00,530.00,VWS V14.01,2013-07-18 22:20:00,
2013-07-18 17:25:00,93.2,66.7,29.68,South,176,6.0,6.0,42,0.00,,---,0.00,521.00,VWS V14.01,2013-07-18 22:25:00,
2013-07-18 17:30:00,93.2,66.7,29.68,North,357,6.0,6.0,42,0.00,,---,0.00,521.00,VWS V14.01,2013-07-18 22:30:00,
2013-07-18 17:35:00,93.2,66.7,29.68,NE,38,0.0,0.0,42,0.00,,---,0.00,521.00,VWS V14.01,2013-07-18 22:35:00,
2013-07-18 17:40:00,93.2,68.1,29.68,SSW,192,7.0,7.0,44,0.00,,---,0.00,521.00,VWS V14.01,2013-07-18 22:40:00,
2013-07-18 17:45:00,92.5,66.8,29.67,NW,309,0.0,0.0,43,0.00,,---,0.00,521.00,VWS V14.01,2013-07-18 22:45:00,
2013-07-18 17:50:00,92.5,66.8,29.67,SSW,200,8.0,8.0,43,0.00,,---,0.00,521.00,VWS V14.01,2013-07-18 22:50:00,
2013-07-18 17:55:00,92.5,66.8,29.67,ESE,123,2.0,3.0,43,0.00,,---,0.00,521.00,VWS V14.01,2013-07-18 22:55:00,
2013-07-18 18:00:00,92.3,67.2,29.67,SW,234,5.0,5.0,44,0.00,,---,0.00,521.00,VWS V14.01,2013-07-18 23:00:00,
2013-07-18 18:05:00,92.3,67.9,29.67,NNW,346,2.0,7.0,45,0.00,,---,0.00,521.00,VWS V14.01,2013-07-18 23:05:00,
2013-07-18 18:10:00,92.1,67.7,29.67,SW,230,4.0,4.0,45,0.00,,---,0.00,389.00,VWS V14.01,2013-07-18 23:10:00,
2013-07-18 18:15:00,92.3,67.9,29.66,SE,143,2.0,7.0,45,0.00,,---,0.00,389.00,VWS V14.01,2013-07-18 23:15:00,
2013-07-18 18:20:00,92.1,67.7,29.66,South,181,12.0,12.0,45,0.00,,---,0.00,354.00,VWS V14.01,2013-07-18 23:20:00,
2013-07-18 18:25:00,92.1,66.4,29.66,WNW,302,5.0,13.0,43,0.00,,---,0.00,354.00,VWS V14.01,2013-07-18 23:25:00,
2013-07-18 18:30:00,91.8,66.1,29.66,NNW,342,2.0,2.0,43,0.00,,---,0.00,326.00,VWS V14.01,2013-07-18 23:30:00,
2013-07-18 18:35:00,91.8,66.8,29.66,West,280,2.0,3.0,44,0.00,,---,0.00,296.00,VWS V14.01,2013-07-18 23:35:00,
2013-07-18 18:40:00,91.4,66.4,29.66,North,8,3.0,7.0,44,0.00,,---,0.00,296.00,VWS V14.01,2013-07-18 23:40:00,
2013-07-18 18:45:00,91.4,66.4,29.66,NW,311,6.0,6.0,44,0.00,,---,0.00,280.00,VWS V14.01,2013-07-18 23:45:00,
2013-07-18 18:50:00,91.4,67.1,29.66,SW,215,10.0,10.0,45,0.00,,---,0.00,280.00,VWS V14.01,2013-07-18 23:50:00,
2013-07-18 18:55:00,91.4,67.1,29.66,NE,51,3.0,3.0,45,0.00,,---,0.00,280.00,VWS V14.01,2013-07-18 23:55:00,
2013-07-18 19:00:00,91.0,66.7,29.65,SSW,196,14.0,14.0,45,0.00,,---,0.00,280.00,VWS V14.01,2013-07-19 00:00:00,
2013-07-18 19:05:00,91.0,66.7,29.65,SW,230,2.0,3.0,45,0.00,,---,0.00,280.00,VWS V14.01,2013-07-19 00:05:00,
2013-07-18 19:10:00,90.7,67.1,29.65,WNW,302,2.0,6.0,46,0.00,,---,0.00,280.00,VWS V14.01,2013-07-19 00:10:00,
2013-07-18 19:15:00,90.7,67.1,29.65,SSW,210,1.0,1.0,46,0.00,,---,0.00,280.00,VWS V14.01,2013-07-19 00:15:00,
2013-07-18 19:20:00,90.7,67.1,29.65,SW,223,1.0,1.0,46,0.00,,---,0.00,280.00,VWS V14.01,2013-07-19 00:20:00,
2013-07-18 19:25:00,90.7,67.7,29.65,SSW,195,3.0,3.0,47,0.00,,---,0.00,280.00,VWS V14.01,2013-07-19 00:25:00,
2013-07-18 19:30:00,90.7,67.7,29.64,SSW,195,7.0,10.0,47,0.00,,---,0.00,153.00,VWS V14.01,2013-07-19 00:30:00,
2013-07-18 19:35:00,90.5,67.5,29.64,SSW,195,8.0,8.0,47,0.00,,---,0.00,153.00,VWS V14.01,2013-07-19 00:35:00,
2013-07-18 19:40:00,90.3,67.3,29.64,SSW,200,3.0,3.0,47,0.00,,---,0.00,132.00,VWS V14.01,2013-07-19 00:40:00,
2013-07-18 19:45:00,90.3,67.3,29.64,WSW,254,8.0,8.0,47,0.00,,---,0.00,132.00,VWS V14.01,2013-07-19 00:45:00,
2013-07-18 19:50:00,90.1,67.2,29.64,WNW,287,2.0,2.0,47,0.00,,---,0.00,114.00,VWS V14.01,2013-07-19 00:50:00,
2013-07-18 19:55:00,89.9,67.0,29.64,West,275,3.0,3.0,47,0.00,,---,0.00,114.00,VWS V14.01,2013-07-19 00:55:00,
2013-07-18 20:00:00,89.9,67.6,29.63,East,79,2.0,5.0,48,0.00,,---,0.00,114.00,VWS V14.01,2013-07-19 01:00:00,
2013-07-18 20:05:00,89.7,67.4,29.63,NNW,339,2.0,2.0,48,0.00,,---,0.00,77.00,VWS V14.01,2013-07-19 01:05:00,
2013-07-18 20:10:00,89.7,67.4,29.63,WSW,248,6.0,6.0,48,0.00,,---,0.00,62.00,VWS V14.01,2013-07-19 01:10:00,
2013-07-18 20:15:00,89.5,67.2,29.63,NNW,332,2.0,5.0,48,0.00,,---,0.00,51.00,VWS V14.01,2013-07-19 01:15:00,
2013-07-18 20:20:00,89.3,67.7,29.63,NW,312,2.0,6.0,49,0.00,,---,0.00,30.00,VWS V14.01,2013-07-19 01:20:00,
2013-07-18 20:25:00,89.0,67.4,29.63,NNE,28,1.0,1.0,49,0.00,,---,0.00,19.00,VWS V14.01,2013-07-19 01:25:00,
2013-07-18 20:30:00,88.8,67.2,29.63,West,271,2.0,2.0,49,0.00,,---,0.00,19.00,VWS V14.01,2013-07-19 01:30:00,
2013-07-18 20:35:00,88.6,67.0,29.63,WNW,285,2.0,2.0,49,0.00,,---,0.00,19.00,VWS V14.01,2013-07-19 01:35:00,
2013-07-18 20:40:00,88.6,67.0,29.63,West,270,1.0,3.0,49,0.00,,---,0.00,19.00,VWS V14.01,2013-07-19 01:40:00,
2013-07-18 20:45:00,88.2,66.7,29.63,NW,312,2.0,2.0,49,0.00,,---,0.00,19.00,VWS V14.01,2013-07-19 01:45:00,
2013-07-18 20:50:00,88.0,68.2,29.63,West,260,0.0,0.0,52,0.00,,---,0.00,0.00,VWS V14.01,2013-07-19 01:50:00,
2013-07-18 20:55:00,88.0,68.2,29.63,West,280,0.0,12.0,52,0.00,,---,0.00,0.00,VWS V14.01,2013-07-19 01:55:00,
2013-07-18 21:00:00,87.8,68.0,29.62,NW,318,2.0,2.0,52,0.00,,---,0.00,0.00,VWS V14.01,2013-07-19 02:00:00,
2013-07-18 21:05:00,87.6,67.8,29.62,NW,323,2.0,2.0,52,0.00,,---,0.00,0.00,VWS V14.01,2013-07-19 02:05:00,
2013-07-18 21:10:00,87.4,67.6,29.62,East,90,0.0,2.0,52,0.00,,---,0.00,0.00,VWS V14.01,2013-07-19 02:10:00,
2013-07-18 21:15:00,87.4,68.2,29.63,SW,233,0.0,0.0,53,0.00,,---,0.00,0.00,VWS V14.01,2013-07-19 02:15:00,
2013-07-18 21:20:00,87.4,68.2,29.63,SSW,198,6.0,6.0,53,0.00,,---,0.00,0.00,VWS V14.01,2013-07-19 02:20:00,
2013-07-18 21:25:00,87.2,68.0,29.63,SW,229,5.0,5.0,53,0.00,,---,0.00,0.00,VWS V14.01,2013-07-19 02:25:00,
2013-07-18 21:30:00,87.2,68.0,29.63,NNW,344,2.0,6.0,53,0.00,,---,0.00,0.00,VWS V14.01,2013-07-19 02:30:00,
2013-07-18 21:35:00,87.2,68.0,29.63,WSW,244,3.0,3.0,53,0.00,,---,0.00,0.00,VWS V14.01,2013-07-19 02:35:00,
2013-07-18 21:40:00,86.7,67.5,29.63,WSW,253,1.0,3.0,53,0.00,,---,0.00,0.00,VWS V14.01,2013-07-19 02:40:00,
2013-07-18 21:45:00,86.7,68.1,29.63,WSW,251,7.0,7.0,54,0.00,,---,0.00,0.00,VWS V14.01,2013-07-19 02:45:00,
2013-07-18 21:50:00,86.5,67.9,29.63,SW,234,2.0,2.0,54,0.00,,---,0.00,0.00,VWS V14.01,2013-07-19 02:50:00,
2013-07-18 21:55:00,86.5,67.9,29.63,SSE,148,3.0,3.0,54,0.00,,---,0.00,0.00,VWS V14.01,2013-07-19 02:55:00,
2013-07-18 22:00:00,86.3,67.7,29.63,WSW,257,2.0,2.0,54,0.00,,---,0.00,0.00,VWS V14.01,2013-07-19 03:00:00,
2013-07-18 22:05:00,86.3,67.7,29.63,NNE,14,0.0,0.0,54,0.00,,---,0.00,0.00,VWS V14.01,2013-07-19 03:05:00,
2013-07-18 22:10:00,86.1,67.5,29.63,South,172,5.0,5.0,54,0.00,,---,0.00,0.00,VWS V14.01,2013-07-19 03:10:00,
2013-07-18 22:15:00,85.9,67.3,29.62,SE,128,1.0,2.0,54,0.00,,---,0.00,0.00,VWS V14.01,2013-07-19 03:15:00,
2013-07-18 22:20:00,85.9,67.3,29.62,SW,234,1.0,1.0,54,0.00,,---,0.00,0.00,VWS V14.01,2013-07-19 03:20:00,
2013-07-18 22:25:00,85.9,67.3,29.62,SSW,192,7.0,7.0,54,0.00,,---,0.00,0.00,VWS V14.01,2013-07-19 03:25:00,
2013-07-18 22:30:00,85.9,67.3,29.62,WSW,254,3.0,3.0,54,0.00,,---,0.00,0.00,VWS V14.01,2013-07-19 03:30:00,
2013-07-18 22:35:00,85.7,68.2,29.62,North,353,0.0,1.0,56,0.00,,---,0.00,0.00,VWS V14.01,2013-07-19 03:35:00,
2013-07-18 22:40:00,85.5,68.0,29.62,North,0,1.0,1.0,56,0.00,,---,0.00,0.00,VWS V14.01,2013-07-19 03:40:00,
2013-07-18 22:45:00,85.5,68.0,29.61,WSW,254,2.0,2.0,56,0.00,,---,0.00,0.00,VWS V14.01,2013-07-19 03:45:00,
2013-07-18 22:50:00,85.3,67.8,29.61,SW,222,2.0,3.0,56,0.00,,---,0.00,0.00,VWS V14.01,2013-07-19 03:50:00,
2013-07-18 22:55:00,85.3,67.8,29.61,NW,318,2.0,5.0,56,0.00,,---,0.00,0.00,VWS V14.01,2013-07-19 03:55:00,
2013-07-18 23:00:00,85.1,67.7,29.61,SSW,200,4.0,8.0,56,0.00,,---,0.00,0.00,VWS V14.01,2013-07-19 04:00:00,
2013-07-18 23:01:00,85.1,67.7,29.61,SSW,200,4.0,8.0,56,0.00,,---,0.00,0.00,VWS V14.01,2013-07-19 04:01:00,
2013-07-18 23:02:00,85.1,67.7,29.61,SSW,200,9.0,9.0,56,0.00,,---,0.00,0.00,VWS V14.01,2013-07-19 04:02:00,
2013-07-18 23:07:00,85.1,67.7,29.61,South,184,1.0,1.0,56,0.00,,---,0.00,0.00,VWS V14.01,2013-07-19 04:07:00,
2013-07-18 23:12:00,85.1,67.7,29.61,SW,220,2.0,2.0,56,0.00,,---,0.00,0.00,VWS V14.01,2013-07-19 04:12:00,
2013-07-18 23:17:00,84.9,67.5,29.61,SSW,205,4.0,4.0,56,0.00,,---,0.00,0.00,VWS V14.01,2013-07-19 04:17:00,
2013-07-18 23:22:00,84.9,67.5,29.61,WSW,256,1.0,1.0,56,0.00,,---,0.00,0.00,VWS V14.01,2013-07-19 04:22:00,
2013-07-18 23:27:00,84.7,67.3,29.61,SW,234,0.0,0.0,56,0.00,,---,0.00,0.00,VWS V14.01,2013-07-19 04:27:00,
2013-07-18 23:32:00,84.7,67.3,29.61,SSW,213,12.0,12.0,56,0.00,,---,0.00,0.00,VWS V14.01,2013-07-19 04:32:00,
2013-07-18 23:37:00,84.5,67.1,29.61,ESE,106,2.0,2.0,56,0.00,,---,0.00,0.00,VWS V14.01,2013-07-19 04:37:00,
2013-07-18 23:42:00,84.5,67.1,29.61,SSW,195,6.0,6.0,56,0.00,,---,0.00,0.00,VWS V14.01,2013-07-19 04:42:00,
2013-07-18 23:47:00,84.3,66.9,29.60,South,186,7.0,7.0,56,0.00,,---,0.00,0.00,VWS V14.01,2013-07-19 04:47:00,
2013-07-18 23:52:00,84.3,66.9,29.60,South,171,6.0,6.0,56,0.00,,---,0.00,0.00,VWS V14.01,2013-07-19 04:52:00,
2013-07-18 23:57:00,84.3,66.9,29.60,WSW,240,0.0,0.0,56,0.00,,---,0.00,0.00,VWS V14.01,2013-07-19 04:57:00,